createdAt,value
2019-01-09T00:02:24.276Z,-3.60
2019-01-09T00:04:52.943Z,-3.60
2019-01-09T00:07:21.657Z,-3.60
2019-01-09T00:09:50.332Z,-3.60
2019-01-09T00:12:19.014Z,-3.50
2019-01-09T00:14:47.686Z,-3.50
2019-01-09T00:17:16.371Z,-3.50
2019-01-09T00:19:45.088Z,-3.50
2019-01-09T00:22:13.779Z,-3.40
2019-01-09T00:24:42.427Z,-3.40
2019-01-09T00:27:11.134Z,-3.40
2019-01-09T00:29:39.794Z,-3.40
2019-01-09T00:32:08.542Z,-3.40
2019-01-09T00:34:37.221Z,-3.50
2019-01-09T00:37:05.897Z,-3.50
2019-01-09T00:39:34.549Z,-3.50
2019-01-09T00:42:03.214Z,-3.40
2019-01-09T00:44:31.922Z,-3.50
2019-01-09T00:47:00.588Z,-3.50
2019-01-09T00:49:29.284Z,-3.50
2019-01-09T00:51:58.270Z,-3.50
2019-01-09T00:54:26.959Z,-3.50
2019-01-09T00:56:55.671Z,-3.50
2019-01-09T00:59:24.390Z,-3.50
2019-01-09T01:02:14.477Z,-3.50
2019-01-09T01:04:54.951Z,-3.50
2019-01-09T01:07:58.652Z,-3.60
2019-01-09T01:10:45.235Z,-3.60
2019-01-09T01:13:28.711Z,-3.70
2019-01-09T01:16:25.816Z,-3.70
2019-01-09T01:19:12.622Z,-3.80
2019-01-09T01:21:44.417Z,-3.70
2019-01-09T01:24:25.091Z,-3.70
2019-01-09T01:27:02.112Z,-3.70
2019-01-09T01:29:54.708Z,-3.70
2019-01-09T01:32:29.452Z,-3.60
2019-01-09T01:35:07.373Z,-3.70
2019-01-09T01:37:54.133Z,-3.60
2019-01-09T01:40:31.819Z,-3.60
2019-01-09T01:43:33.952Z,-3.60
2019-01-09T01:46:11.463Z,-3.60
2019-01-09T01:49:00.894Z,-3.60
2019-01-09T01:51:56.559Z,-3.50
2019-01-09T01:54:39.983Z,-3.50
2019-01-09T01:57:27.993Z,-3.60
2019-01-09T02:00:05.264Z,-3.60
2019-01-09T02:02:45.225Z,-3.50
2019-01-09T02:05:22.947Z,-3.60
2019-01-09T02:08:03.554Z,-3.60
2019-01-09T02:10:56.320Z,-3.50
2019-01-09T02:13:36.935Z,-3.50
2019-01-09T02:16:14.640Z,-3.50
2019-01-09T02:18:46.426Z,-3.50
2019-01-09T02:21:27.229Z,-3.50
2019-01-09T02:24:01.895Z,-3.50
2019-01-09T02:26:36.720Z,-3.50
2019-01-09T02:29:11.166Z,-3.50
2019-01-09T02:31:51.903Z,-3.50
2019-01-09T02:34:20.643Z,-3.60
2019-01-09T02:36:49.351Z,-3.60
2019-01-09T02:39:18.025Z,-3.60
2019-01-09T02:41:46.675Z,-3.60
2019-01-09T02:44:15.393Z,-3.60
2019-01-09T02:46:44.061Z,-3.60
2019-01-09T02:49:12.731Z,-3.60
2019-01-09T02:51:41.430Z,-3.60
2019-01-09T02:54:10.093Z,-3.60
2019-01-09T02:56:38.771Z,-3.60
2019-01-09T02:59:07.447Z,-3.50
2019-01-09T03:01:36.104Z,-3.50
2019-01-09T03:04:04.790Z,-3.50
2019-01-09T03:06:33.504Z,-3.50
2019-01-09T03:09:02.288Z,-3.50
2019-01-09T03:11:30.916Z,-3.50
2019-01-09T03:13:59.574Z,-3.50
2019-01-09T03:16:28.249Z,-3.50
2019-01-09T03:19:16.279Z,-3.50
2019-01-09T03:21:44.975Z,-3.50
2019-01-09T03:24:13.636Z,-3.60
2019-01-09T03:26:42.327Z,-3.50
2019-01-09T03:29:11.019Z,-3.60
2019-01-09T03:31:39.708Z,-3.60
2019-01-09T03:34:08.397Z,-3.70
2019-01-09T03:36:37.126Z,-3.70
2019-01-09T03:39:06.696Z,-3.80
2019-01-09T03:41:35.278Z,-3.90
2019-01-09T03:44:03.981Z,-4.00
2019-01-09T03:46:32.653Z,-4.00
2019-01-09T03:49:01.317Z,-4.10
2019-01-09T03:51:29.977Z,-4.10
2019-01-09T03:53:58.645Z,-4.10
2019-01-09T03:56:27.295Z,-4.20
2019-01-09T03:58:55.989Z,-4.10
2019-01-09T04:01:26.300Z,-4.20
2019-01-09T04:03:54.938Z,-4.10
2019-01-09T04:06:23.617Z,-4.10
2019-01-09T04:08:52.296Z,-4.20
2019-01-09T04:11:20.960Z,-4.30
2019-01-09T04:13:49.669Z,-4.30
2019-01-09T04:16:18.299Z,-4.30
2019-01-09T04:18:47.029Z,-4.30
2019-01-09T04:21:15.728Z,-4.30
2019-01-09T04:23:44.325Z,-4.40
2019-01-09T04:26:13.012Z,-4.30
2019-01-09T04:28:41.658Z,-4.30
2019-01-09T04:31:10.326Z,-4.40
2019-01-09T04:33:39.022Z,-4.40
2019-01-09T04:36:07.736Z,-4.40
2019-01-09T04:38:36.458Z,-4.50
2019-01-09T04:41:05.131Z,-4.50
2019-01-09T04:43:33.777Z,-4.60
2019-01-09T04:46:02.467Z,-4.60
2019-01-09T04:48:31.274Z,-4.50
2019-01-09T04:50:59.941Z,-4.50
2019-01-09T04:53:28.733Z,-4.60
2019-01-09T04:55:57.342Z,-4.60
2019-01-09T04:58:26.039Z,-4.60
2019-01-09T05:00:54.746Z,-4.60
2019-01-09T05:03:23.463Z,-4.60
2019-01-09T05:05:52.165Z,-4.70
2019-01-09T05:08:20.837Z,-4.70
2019-01-09T05:10:49.543Z,-4.70
2019-01-09T05:13:18.197Z,-4.70
2019-01-09T05:15:46.791Z,-4.70
2019-01-09T05:18:15.463Z,-4.70
2019-01-09T05:20:44.275Z,-4.70
2019-01-09T05:23:13.006Z,-4.70
2019-01-09T05:25:41.653Z,-4.70
2019-01-09T05:28:10.521Z,-4.70
2019-01-09T05:30:39.190Z,-4.80
2019-01-09T05:33:09.445Z,-4.80
2019-01-09T05:35:39.714Z,-4.80
2019-01-09T05:38:10.706Z,-4.80
2019-01-09T05:40:39.535Z,-4.80
2019-01-09T05:43:08.428Z,-4.80
2019-01-09T05:45:37.161Z,-4.80
2019-01-09T05:48:05.909Z,-4.90
2019-01-09T05:50:34.624Z,-4.80
2019-01-09T05:53:05.726Z,-4.80
2019-01-09T05:55:34.397Z,-4.90
2019-01-09T05:58:03.134Z,-4.90
2019-01-09T06:00:34.658Z,-4.90
2019-01-09T06:03:03.541Z,-4.90
2019-01-09T06:05:32.294Z,-4.80
2019-01-09T06:08:01.010Z,-4.90
2019-01-09T06:10:29.692Z,-4.90
2019-01-09T06:12:58.375Z,-4.90
2019-01-09T06:15:27.249Z,-4.90
2019-01-09T06:17:55.919Z,-4.90
2019-01-09T06:20:24.701Z,-4.90
2019-01-09T06:22:53.379Z,-5.00
2019-01-09T06:25:22.103Z,-5.00
2019-01-09T06:27:50.869Z,-5.00
2019-01-09T06:30:19.514Z,-5.10
2019-01-09T06:32:48.221Z,-5.00
2019-01-09T06:35:18.432Z,-5.00
2019-01-09T06:37:47.149Z,-5.00
2019-01-09T06:40:15.841Z,-5.00
2019-01-09T06:42:44.534Z,-4.90
2019-01-09T06:45:13.222Z,-4.90
2019-01-09T06:47:41.923Z,-4.80
2019-01-09T06:50:13.884Z,-4.80
2019-01-09T06:52:42.568Z,-4.80
2019-01-09T06:55:11.310Z,-4.80
2019-01-09T06:57:40.054Z,-4.80
2019-01-09T07:00:10.796Z,-4.80
2019-01-09T07:02:39.469Z,-4.80
2019-01-09T07:05:08.179Z,-4.80
2019-01-09T07:07:36.868Z,-4.80
2019-01-09T07:10:07.708Z,-4.80
2019-01-09T07:12:36.448Z,-4.70
2019-01-09T07:15:11.372Z,-4.70
2019-01-09T07:17:37.105Z,-4.70
2019-01-09T07:20:05.765Z,-4.70
2019-01-09T07:22:34.520Z,-4.80
2019-01-09T07:25:04.810Z,-4.80
2019-01-09T07:27:33.478Z,-4.70
2019-01-09T07:30:02.200Z,-4.70
2019-01-09T07:32:32.458Z,-4.80
2019-01-09T07:35:01.233Z,-4.80
2019-01-09T07:37:30.082Z,-4.70
2019-01-09T07:40:01.824Z,-4.60
2019-01-09T07:42:30.532Z,-4.70
2019-01-09T07:44:59.215Z,-4.50
2019-01-09T07:47:27.935Z,-4.40
2019-01-09T07:49:56.621Z,-4.40
2019-01-09T07:52:25.364Z,-4.20
2019-01-09T07:54:54.088Z,-4.10
2019-01-09T07:57:26.848Z,-4.10
2019-01-09T07:59:56.091Z,-4.20
2019-01-09T08:02:24.742Z,-4.20
2019-01-09T08:04:53.507Z,-4.30
2019-01-09T08:07:22.257Z,-4.40
2019-01-09T08:09:51.014Z,-4.40
2019-01-09T08:12:19.700Z,-4.30
2019-01-09T08:14:48.385Z,-4.20
2019-01-09T08:17:17.089Z,-4.00
2019-01-09T08:19:45.756Z,-4.00
2019-01-09T08:22:14.504Z,-3.90
2019-01-09T08:24:43.227Z,-3.90
2019-01-09T08:27:11.901Z,-4.00
2019-01-09T08:29:40.659Z,-3.80
2019-01-09T08:32:09.433Z,-3.50
2019-01-09T08:34:38.114Z,-3.20
2019-01-09T08:37:06.827Z,-3.50
2019-01-09T08:39:36.009Z,-3.50
2019-01-09T08:42:04.698Z,-3.30
2019-01-09T08:44:33.498Z,-3.30
2019-01-09T08:47:02.205Z,-3.10
2019-01-09T08:49:30.948Z,-3.10
2019-01-09T08:51:59.682Z,-3.10
2019-01-09T08:54:28.344Z,-3.20
2019-01-09T08:56:57.093Z,-3.20
2019-01-09T08:59:25.799Z,-3.20
2019-01-09T09:01:54.510Z,-3.20
2019-01-09T09:04:25.682Z,-3.10
2019-01-09T09:06:54.418Z,-3.40
2019-01-09T09:09:23.225Z,-3.30
2019-01-09T09:11:53.629Z,-3.00
2019-01-09T09:14:22.846Z,-2.90
2019-01-09T09:16:51.515Z,-3.00
2019-01-09T09:19:22.025Z,-3.30
2019-01-09T09:21:50.757Z,-3.30
2019-01-09T09:24:19.430Z,-3.20
2019-01-09T09:26:48.096Z,-3.00
2019-01-09T09:29:16.795Z,-2.90
2019-01-09T09:31:45.517Z,-2.80
2019-01-09T09:34:14.218Z,-3.20
2019-01-09T09:36:44.365Z,-3.10
2019-01-09T09:39:13.067Z,-3.10
2019-01-09T09:41:41.785Z,-2.90
2019-01-09T09:44:10.505Z,-3.00
2019-01-09T09:46:39.223Z,-3.00
2019-01-09T09:49:07.972Z,-3.00
2019-01-09T09:51:36.636Z,-3.10
2019-01-09T09:54:05.571Z,-3.10
2019-01-09T09:56:35.659Z,-3.10
2019-01-09T09:59:04.342Z,-3.10
2019-01-09T10:01:33.054Z,-3.00
2019-01-09T10:04:01.674Z,-2.80
2019-01-09T10:06:30.727Z,-3.00
2019-01-09T10:08:59.481Z,-3.20
2019-01-09T10:11:29.962Z,-4.00
2019-01-09T10:13:59.259Z,-4.00
2019-01-09T10:16:27.932Z,-4.20
2019-01-09T10:18:56.645Z,-4.10
2019-01-09T10:21:25.920Z,-4.00
2019-01-09T10:23:55.925Z,-3.90
2019-01-09T10:26:24.727Z,-3.90
2019-01-09T10:28:53.615Z,-3.80
2019-01-09T10:31:24.472Z,-3.80
2019-01-09T10:33:56.643Z,-3.90
2019-01-09T10:36:25.922Z,-3.80
2019-01-09T10:38:55.198Z,-3.90
2019-01-09T10:41:24.087Z,-3.80
2019-01-09T10:43:54.117Z,-3.90
2019-01-09T10:46:23.035Z,-3.90
2019-01-09T10:51:43.223Z,-3.90
2019-01-09T10:54:23.679Z,-3.80
2019-01-09T10:56:53.412Z,-3.80
2019-01-09T10:59:25.170Z,-3.80
2019-01-09T11:01:55.216Z,-3.80
2019-01-09T11:04:26.681Z,-4.00
2019-01-09T11:06:56.265Z,-3.90
2019-01-09T11:09:25.132Z,-3.90
2019-01-09T11:11:53.860Z,-3.90
2019-01-09T12:23:01.272Z,-4.90
2019-01-09T12:25:30.017Z,-5.00
2019-01-09T12:27:59.773Z,-4.80
2019-01-09T12:30:31.593Z,-4.20
2019-01-09T12:33:09.409Z,-4.10
2019-01-09T14:06:35.918Z,-6.90
2019-01-09T14:09:06.921Z,-6.70
2019-01-09T14:11:38.273Z,-6.70
2019-01-09T14:14:07.120Z,-6.70
2019-01-09T14:16:36.000Z,-6.60
2019-01-09T14:19:06.423Z,-6.60
2019-01-09T14:21:37.088Z,-6.60
2019-01-09T14:24:07.270Z,-6.60
2019-01-09T14:26:36.180Z,-6.70
2019-01-09T14:29:10.527Z,-6.60
2019-01-09T14:31:39.930Z,-6.60
2019-01-09T14:34:08.782Z,-6.60
2019-01-09T14:36:40.431Z,-6.60
2019-01-09T14:39:11.259Z,-6.50
2019-01-09T14:41:41.211Z,-6.50
2019-01-09T14:44:11.488Z,-6.60
2019-01-09T14:46:40.290Z,-6.60
2019-01-09T14:49:09.930Z,-6.60
2019-01-09T14:51:43.205Z,-6.70
2019-01-09T14:54:10.572Z,-6.60
2019-01-09T14:56:39.326Z,-6.50
2019-01-09T14:59:08.021Z,-6.50
2019-01-09T15:01:37.856Z,-6.50
2019-01-09T15:04:08.902Z,-6.40
2019-01-09T15:06:37.568Z,-6.50
2019-01-09T15:09:07.744Z,-6.50
2019-01-09T15:11:36.450Z,-6.50
2019-01-09T15:14:06.752Z,-6.60
2019-01-09T15:16:36.712Z,-6.60
2019-01-09T15:19:08.249Z,-6.80
2019-01-09T15:21:38.106Z,-6.80
2019-01-09T15:24:08.571Z,-6.90
2019-01-09T15:26:37.249Z,-6.90
2019-01-09T15:29:06.121Z,-6.90
2019-01-09T15:31:38.647Z,-7.00
2019-01-09T15:34:08.694Z,-7.00
2019-01-09T15:36:37.456Z,-6.90
2019-01-09T15:39:07.631Z,-6.90
2019-01-09T15:41:36.387Z,-6.90
2019-01-09T15:44:05.177Z,-6.80
2019-01-09T15:46:35.480Z,-6.80
2019-01-09T15:49:04.245Z,-6.80
2019-01-09T15:51:34.307Z,-6.70
2019-01-09T15:54:04.720Z,-6.70
2019-01-09T15:56:33.623Z,-6.80
2019-01-09T15:59:02.394Z,-6.70
2019-01-09T16:01:31.075Z,-6.70
2019-01-09T16:04:00.308Z,-6.80
2019-01-09T16:06:34.157Z,-6.90
2019-01-09T16:50:04.983Z,-6.40
2019-01-09T16:52:33.757Z,-6.40
2019-01-09T16:55:04.974Z,-6.30
2019-01-09T16:57:33.733Z,-6.30
2019-01-09T17:00:02.398Z,-6.20
2019-01-09T17:02:35.142Z,-6.30
2019-01-09T17:05:04.248Z,-6.40
2019-01-09T17:07:35.779Z,-6.30
2019-01-09T17:10:08.130Z,-6.30
2019-01-09T17:12:36.857Z,-6.20
2019-01-09T17:15:08.674Z,-6.20
2019-01-09T17:17:37.325Z,-6.20
2019-01-09T17:20:09.147Z,-6.30
2019-01-09T17:22:37.862Z,-6.30
2019-01-09T17:25:07.851Z,-6.30
2019-01-09T17:27:36.562Z,-6.10
2019-01-09T17:30:17.318Z,-6.10
2019-01-09T17:32:46.246Z,-6.00
2019-01-09T17:49:08.717Z,-5.80
2019-01-09T17:51:41.340Z,-6.00
2019-01-09T17:54:10.140Z,-5.90
2019-01-09T17:56:43.062Z,-6.00
2019-01-09T17:59:16.026Z,-6.10
2019-01-09T18:01:55.062Z,-6.20
2019-01-09T18:04:23.731Z,-6.20
2019-01-09T18:06:52.530Z,-6.10
2019-01-09T18:09:21.180Z,-6.20
2019-01-09T18:11:50.031Z,-6.30
2019-01-09T18:14:18.820Z,-6.20
2019-01-09T18:16:47.645Z,-6.20
2019-01-09T18:19:16.420Z,-6.10
2019-01-09T18:21:45.238Z,-6.10
2019-01-09T18:24:18.004Z,-6.10
2019-01-09T18:26:44.599Z,-5.90
2019-01-09T18:29:13.320Z,-6.00
2019-01-09T18:32:00.200Z,-5.90
2019-01-09T18:34:29.449Z,-5.90
2019-01-09T18:37:07.081Z,-5.80
2019-01-09T18:39:58.481Z,-5.80
2019-01-09T18:42:45.134Z,-5.70
2019-01-09T18:45:22.919Z,-5.60
2019-01-09T18:47:57.661Z,-5.50
2019-01-09T18:50:38.961Z,-5.30
2019-01-09T18:53:13.412Z,-5.30
2019-01-09T18:55:44.050Z,-5.20
2019-01-09T18:58:12.950Z,-5.20
2019-01-09T19:00:55.312Z,-5.10
2019-01-09T19:03:25.259Z,-5.10
2019-01-09T19:05:54.629Z,-5.00
2019-01-09T19:08:23.419Z,-5.00
2019-01-09T19:10:54.822Z,-4.90
2019-01-09T19:13:26.638Z,-4.90
2019-01-09T19:15:57.038Z,-4.90
2019-01-09T19:18:25.762Z,-4.90
2019-01-09T19:20:57.593Z,-4.80
2019-01-09T19:23:26.400Z,-4.80
2019-01-09T19:25:58.262Z,-4.80
2019-01-09T19:28:27.259Z,-4.70
2019-01-09T19:30:59.960Z,-4.60
2019-01-09T19:33:28.536Z,-4.60
2019-01-09T19:36:06.844Z,-4.60
2019-01-09T19:39:18.137Z,-4.70
2019-01-09T19:41:41.439Z,-4.60
2019-01-09T19:44:23.131Z,-4.60
2019-01-09T19:46:51.841Z,-4.60
2019-01-09T19:49:23.565Z,-4.60
2019-01-09T19:51:52.260Z,-4.60
2019-01-09T19:54:20.975Z,-4.60
2019-01-09T19:56:49.799Z,-4.60
2019-01-09T19:59:19.992Z,-4.60
2019-01-09T20:01:50.241Z,-4.60
2019-01-09T20:04:20.502Z,-4.60
2019-01-09T20:06:49.325Z,-4.50
2019-01-09T20:09:18.352Z,-4.40
2019-01-09T20:11:47.018Z,-4.40
2019-01-09T20:14:15.697Z,-4.30
2019-01-09T20:16:44.448Z,-4.30
2019-01-09T20:19:13.293Z,-4.20
2019-01-09T20:21:42.055Z,-4.20
2019-01-09T20:24:10.761Z,-4.20
2019-01-09T20:26:39.478Z,-4.10
2019-01-09T20:29:11.370Z,-4.00
2019-01-09T20:31:40.119Z,-4.00
2019-01-09T20:34:08.904Z,-3.90
2019-01-09T20:36:37.741Z,-3.80
2019-01-09T20:39:07.785Z,-3.70
2019-01-09T20:41:36.793Z,-3.60
2019-01-09T20:44:05.556Z,-3.60
2019-01-09T20:46:34.295Z,-3.60
2019-01-09T20:49:03.048Z,-3.60
2019-01-09T20:51:31.913Z,-3.50
2019-01-09T20:54:00.680Z,-3.50
2019-01-09T20:56:29.352Z,-3.50
2019-01-09T20:58:58.108Z,-3.40
2019-01-09T21:01:27.384Z,-3.40
2019-01-09T21:03:56.218Z,-3.40
2019-01-09T21:06:24.972Z,-3.40
2019-01-09T21:08:59.562Z,-3.40
2019-01-09T21:11:24.175Z,-3.40
2019-01-09T21:13:52.928Z,-3.30
2019-01-09T21:16:21.627Z,-3.30
2019-01-09T21:18:50.297Z,-3.30
2019-01-09T21:21:18.991Z,-3.20
2019-01-09T21:23:47.704Z,-3.20
2019-01-09T21:26:16.386Z,-3.20
2019-01-09T21:28:45.091Z,-3.20
2019-01-09T21:31:13.841Z,-3.20
2019-01-09T21:33:42.551Z,-3.20
2019-01-09T21:36:13.612Z,-3.20
2019-01-09T21:38:42.316Z,-3.20
2019-01-09T21:41:12.037Z,-3.10
2019-01-09T21:43:42.684Z,-3.10
2019-01-09T21:46:11.431Z,-3.10
2019-01-09T21:48:40.084Z,-3.10
2019-01-09T21:51:08.828Z,-3.00
2019-01-09T21:53:37.566Z,-3.00
2019-01-09T21:56:06.287Z,-3.00
2019-01-09T21:58:35.407Z,-2.90
2019-01-09T22:01:04.171Z,-2.90
2019-01-09T22:03:32.849Z,-2.90
2019-01-09T22:06:01.563Z,-2.90
2019-01-09T22:08:30.212Z,-2.80
2019-01-09T22:10:58.885Z,-2.80
2019-01-09T22:13:27.550Z,-2.80
2019-01-09T22:15:56.282Z,-2.80
2019-01-09T22:18:25.025Z,-2.70
2019-01-09T22:20:53.896Z,-2.70
2019-01-09T22:23:23.719Z,-2.60
2019-01-09T22:25:52.575Z,-2.70
2019-01-09T22:28:21.239Z,-2.70
2019-01-09T22:30:49.908Z,-2.60
2019-01-09T22:33:18.983Z,-2.30
2019-01-09T22:35:47.668Z,-2.20
2019-01-09T22:38:16.352Z,-2.10
2019-01-09T22:40:45.068Z,-2.10
2019-01-09T22:43:13.732Z,-1.90
2019-01-09T22:45:42.373Z,-2.10
2019-01-09T22:48:11.075Z,-2.20
2019-01-09T22:50:39.769Z,-2.20
2019-01-09T22:53:08.441Z,-2.30
2019-01-09T22:55:37.110Z,-2.30
2019-01-09T22:58:05.760Z,-2.30
2019-01-09T23:00:40.768Z,-2.30
2019-01-09T23:03:11.444Z,-2.30
2019-01-09T23:05:40.159Z,-2.30
2019-01-09T23:08:08.874Z,-2.30
2019-01-09T23:10:37.521Z,-2.20
2019-01-09T23:13:06.204Z,-2.10
2019-01-09T23:15:34.891Z,-2.10
2019-01-09T23:18:03.584Z,-2.10
2019-01-09T23:20:32.918Z,-2.10
2019-01-09T23:23:01.598Z,-2.00
2019-01-09T23:25:30.275Z,-2.00
2019-01-09T23:28:00.510Z,-2.00
2019-01-09T23:30:29.182Z,-1.90
2019-01-09T23:32:57.878Z,-1.90
2019-01-09T23:35:26.662Z,-1.90
2019-01-09T23:37:55.348Z,-1.80
2019-01-09T23:40:24.020Z,-1.80
2019-01-09T23:42:52.697Z,-1.80
2019-01-09T23:45:21.364Z,-1.70
2019-01-09T23:47:50.043Z,-1.70
2019-01-09T23:50:18.706Z,-1.60
2019-01-09T23:52:47.353Z,-1.50
2019-01-09T23:55:16.029Z,-1.50
2019-01-09T23:57:44.694Z,-1.50
